Houn Maru — JG5489 — position and weather

sailwx.info

Track history (hours):
 
Tides and Currents Weather Stations Pressure Air Temp Water Temp Dewpoint Dewpoint Depression Visibility Wind Speed Wind Dir Waves Ship Positions

Houn Maru

Last reported at 2014-Sep-03 00:12 UTC. Time now 2014-Sep-03 02:25 UTC.
Position N 34°25' E 135°14'.

Length 91 m; draft 5.9 m.

Type: Tanker. MMSI: 431101172.

Date/timePositionNaut miles runAvg speedWind from/ knotsBaromVisibWave heightAir tempDewpointWater temp
2014-Sep-03 00:12N 34°25' E 135°14'2 3.5
2014-Sep-02 23:33N 34°23' E 135°12'0 0.0
2014-Sep-02 22:15N 34°23' E 135°12'0 0.0
2014-Sep-02 21:33N 34°23' E 135°12'0 0.0
2014-Sep-02 20:33N 34°23' E 135°12'0 0.1
2014-Sep-02 19:23N 34°23' E 135°13'8 9.8
2014-Sep-02 18:33N 34°30' E 135°07'11 9.2
2014-Sep-02 17:23N 34°36' E 134°56'  
2014-Aug-31 02:33N 34°37' E 134°57'1313.3
2014-Aug-31 01:33N 34°34' E 135°12'5 4.6
2014-Aug-31 00:23N 34°32' E 135°18'0 0.0
2014-Aug-30 23:29N 34°32' E 135°18'0 0.0
2014-Aug-30 21:29N 34°32' E 135°18'0 0.0
2014-Aug-30 20:29N 34°32' E 135°18'0 0.0
2014-Aug-30 19:05N 34°32' E 135°18'0 0.0
2014-Aug-30 18:29N 34°32' E 135°18'0 0.0
2014-Aug-30 17:23N 34°32' E 135°18'0 0.0
2014-Aug-30 16:29N 34°32' E 135°18'0 0.0
2014-Aug-30 15:29N 34°32' E 135°18'0 0.0
2014-Aug-30 14:23N 34°32' E 135°18'0 0.0
2014-Aug-30 13:29N 34°32' E 135°18'0 0.0
2014-Aug-30 12:17N 34°32' E 135°18'0 0.0
2014-Aug-30 11:11N 34°32' E 135°18'0 0.0
2014-Aug-30 10:29N 34°32' E 135°18'0 0.0
2014-Aug-30 09:29N 34°32' E 135°18'0 0.0
2014-Aug-30 07:17N 34°32' E 135°18'0 0.0
2014-Aug-30 06:29N 34°32' E 135°18'0 0.0
2014-Aug-30 05:23N 34°32' E 135°18'0 0.0
2014-Aug-30 04:29N 34°32' E 135°18'0 0.0
2014-Aug-30 03:29N 34°32' E 135°18'0 0.0
2014-Aug-30 02:17N 34°32' E 135°18'0 0.0
2014-Aug-30 01:29N 34°32' E 135°18'0 0.1
2014-Aug-30 00:32N 34°32' E 135°18'0 0.1
2014-Aug-29 23:32N 34°32' E 135°18'0 0.1
2014-Aug-29 22:32N 34°32' E 135°18'0 0.0
2014-Aug-29 21:32N 34°32' E 135°18'0 0.0
2014-Aug-29 20:32N 34°32' E 135°18'0 0.1
2014-Aug-29 19:32N 34°32' E 135°18'0 0.0
2014-Aug-29 18:26N 34°32' E 135°18'0 0.0
2014-Aug-29 17:20N 34°32' E 135°18'0 0.0
2014-Aug-29 16:08N 34°32' E 135°18'0 0.0
2014-Aug-29 15:32N 34°32' E 135°18'0 0.0
2014-Aug-29 14:26N 34°32' E 135°18'0 0.0
2014-Aug-29 13:32N 34°32' E 135°18'0 0.0
2014-Aug-29 12:32N 34°32' E 135°18'0 0.0
2014-Aug-29 11:32N 34°32' E 135°18'0 0.0
2014-Aug-29 10:32N 34°32' E 135°18'0 0.0
2014-Aug-29 09:32N 34°32' E 135°18'0 0.0
2014-Aug-29 08:32N 34°32' E 135°18'0 0.0
2014-Aug-29 07:32N 34°32' E 135°18'0 0.0
2014-Aug-29 06:26N 34°32' E 135°18'5 5.6
2014-Aug-29 05:33N 34°28' E 135°14'3 3.1
2014-Aug-29 04:34N 34°25' E 135°14'0 0.0
2014-Aug-29 00:09N 34°25' E 135°14'2 3.7
2014-Aug-28 23:33N 34°23' E 135°13'0 0.1
2014-Aug-28 22:31N 34°23' E 135°12'0 0.0
2014-Aug-28 21:28N 34°23' E 135°12'0 0.0
2014-Aug-28 20:28N 34°23' E 135°12'0 0.0
2014-Aug-28 19:28N 34°23' E 135°12'0 0.0
2014-Aug-28 18:31N 34°23' E 135°12'0 0.0
2014-Aug-28 17:31N 34°23' E 135°12'8 8.6
2014-Aug-28 16:33N 34°30' E 135°07'10 9.8
2014-Aug-28 15:32N 34°36' E 134°57'2 0.1
2014-Aug-27 08:31N 34°37' E 134°58'9 9.0
2014-Aug-27 07:33N 34°32' E 135°06'10 9.3
2014-Aug-27 06:31N 34°25' E 135°14'0 0.0
2014-Aug-27 01:32N 34°25' E 135°14'2 0.9
2014-Aug-26 23:26N 34°23' E 135°13'0 0.0
2014-Aug-26 22:17N 34°23' E 135°13'6 7.8
2014-Aug-26 21:33N 34°28' E 135°09'1211.5
2014-Aug-26 20:33N 34°37' E 134°60'6 0.1
2014-Aug-25 01:30N 34°35' E 134°53'1212.4
2014-Aug-25 00:33N 34°35' E 135°07'1212.4
2014-Aug-24 23:33N 34°36' E 135°22'  
Track history (hours):
 
Tides and Currents Weather Stations Pressure Air Temp Water Temp Dewpoint Dewpoint Depression Visibility Wind Speed Wind Dir Waves Ship Positions

Houn Maru

Last reported at 2014-Sep-03 00:12 UTC. Time now 2014-Sep-03 02:25 UTC.
Position N 34°25' E 135°14'.

Length 91 m; draft 5.9 m.

Type: Tanker. MMSI: 431101172.

Date/timePositionNaut miles runAvg speedWind from/ knotsBaromVisibWave heightAir tempDewpointWater temp
2014-Sep-03 00:12N 34°25' E 135°14'2 3.5
2014-Sep-02 23:33N 34°23' E 135°12'0 0.0
2014-Sep-02 22:15N 34°23' E 135°12'0 0.0
2014-Sep-02 21:33N 34°23' E 135°12'0 0.0
2014-Sep-02 20:33N 34°23' E 135°12'0 0.1
2014-Sep-02 19:23N 34°23' E 135°13'8 9.8
2014-Sep-02 18:33N 34°30' E 135°07'11 9.2
2014-Sep-02 17:23N 34°36' E 134°56'  
2014-Aug-31 02:33N 34°37' E 134°57'1313.3
2014-Aug-31 01:33N 34°34' E 135°12'5 4.6
2014-Aug-31 00:23N 34°32' E 135°18'0 0.0
2014-Aug-30 23:29N 34°32' E 135°18'0 0.0
2014-Aug-30 21:29N 34°32' E 135°18'0 0.0
2014-Aug-30 20:29N 34°32' E 135°18'0 0.0
2014-Aug-30 19:05N 34°32' E 135°18'0 0.0
2014-Aug-30 18:29N 34°32' E 135°18'0 0.0
2014-Aug-30 17:23N 34°32' E 135°18'0 0.0
2014-Aug-30 16:29N 34°32' E 135°18'0 0.0
2014-Aug-30 15:29N 34°32' E 135°18'0 0.0
2014-Aug-30 14:23N 34°32' E 135°18'0 0.0
2014-Aug-30 13:29N 34°32' E 135°18'0 0.0
2014-Aug-30 12:17N 34°32' E 135°18'0 0.0
2014-Aug-30 11:11N 34°32' E 135°18'0 0.0
2014-Aug-30 10:29N 34°32' E 135°18'0 0.0
2014-Aug-30 09:29N 34°32' E 135°18'0 0.0
2014-Aug-30 07:17N 34°32' E 135°18'0 0.0
2014-Aug-30 06:29N 34°32' E 135°18'0 0.0
2014-Aug-30 05:23N 34°32' E 135°18'0 0.0
2014-Aug-30 04:29N 34°32' E 135°18'0 0.0
2014-Aug-30 03:29N 34°32' E 135°18'0 0.0
2014-Aug-30 02:17N 34°32' E 135°18'0 0.0
2014-Aug-30 01:29N 34°32' E 135°18'0 0.1
2014-Aug-30 00:32N 34°32' E 135°18'0 0.1
2014-Aug-29 23:32N 34°32' E 135°18'0 0.1
2014-Aug-29 22:32N 34°32' E 135°18'0 0.0
2014-Aug-29 21:32N 34°32' E 135°18'0 0.0
2014-Aug-29 20:32N 34°32' E 135°18'0 0.1
2014-Aug-29 19:32N 34°32' E 135°18'0 0.0
2014-Aug-29 18:26N 34°32' E 135°18'0 0.0
2014-Aug-29 17:20N 34°32' E 135°18'0 0.0
2014-Aug-29 16:08N 34°32' E 135°18'0 0.0
2014-Aug-29 15:32N 34°32' E 135°18'0 0.0
2014-Aug-29 14:26N 34°32' E 135°18'0 0.0
2014-Aug-29 13:32N 34°32' E 135°18'0 0.0
2014-Aug-29 12:32N 34°32' E 135°18'0 0.0
2014-Aug-29 11:32N 34°32' E 135°18'0 0.0
2014-Aug-29 10:32N 34°32' E 135°18'0 0.0
2014-Aug-29 09:32N 34°32' E 135°18'0 0.0
2014-Aug-29 08:32N 34°32' E 135°18'0 0.0
2014-Aug-29 07:32N 34°32' E 135°18'0 0.0
2014-Aug-29 06:26N 34°32' E 135°18'5 5.6
2014-Aug-29 05:33N 34°28' E 135°14'3 3.1
2014-Aug-29 04:34N 34°25' E 135°14'0 0.0
2014-Aug-29 00:09N 34°25' E 135°14'2 3.7
2014-Aug-28 23:33N 34°23' E 135°13'0 0.1
2014-Aug-28 22:31N 34°23' E 135°12'0 0.0
2014-Aug-28 21:28N 34°23' E 135°12'0 0.0
2014-Aug-28 20:28N 34°23' E 135°12'0 0.0
2014-Aug-28 19:28N 34°23' E 135°12'0 0.0
2014-Aug-28 18:31N 34°23' E 135°12'0 0.0
2014-Aug-28 17:31N 34°23' E 135°12'8 8.6
2014-Aug-28 16:33N 34°30' E 135°07'10 9.8
2014-Aug-28 15:32N 34°36' E 134°57'2 0.1
2014-Aug-27 08:31N 34°37' E 134°58'9 9.0
2014-Aug-27 07:33N 34°32' E 135°06'10 9.3
2014-Aug-27 06:31N 34°25' E 135°14'0 0.0
2014-Aug-27 01:32N 34°25' E 135°14'2 0.9
2014-Aug-26 23:26N 34°23' E 135°13'0 0.0
2014-Aug-26 22:17N 34°23' E 135°13'6 7.8
2014-Aug-26 21:33N 34°28' E 135°09'1211.5
2014-Aug-26 20:33N 34°37' E 134°60'6 0.1
2014-Aug-25 01:30N 34°35' E 134°53'1212.4
2014-Aug-25 00:33N 34°35' E 135°07'1212.4
2014-Aug-24 23:33N 34°36' E 135°22'  

Dump ship's entire track history